Time;durP1;ratioP1;P1;durP2;ratioP2;P2;SDS_P1;SDS_P2;PMS_P1;PMS_P2;Temp;Humidity;BMP_temperature;BMP_pressure;BME280_temperature;BME280_humidity;BME280_pressure;Samples;Min_cycle;Max_cycle;Signal;HPM_P1;HPM_P2
2021/07/16 00:00:17;;;;;;;24.40;5.25;;;17.80;91.40;;;;;;5057583;28;20053;-93
2021/07/16 00:02:43;;;;;;;13.43;4.93;;;17.70;91.30;;;;;;5056461;28;20057;-91
2021/07/16 00:05:10;;;;;;;22.55;5.50;;;17.80;91.80;;;;;;5057475;28;20071;-91
2021/07/16 00:07:38;;;;;;;19.25;4.63;;;17.70;91.60;;;;;;5057385;28;20134;-91
2021/07/16 00:10:12;;;;;;;19.77;5.53;;;17.80;91.50;;;;;;5057160;28;20056;-94
2021/07/16 00:12:42;;;;;;;17.70;4.80;;;17.80;91.50;;;;;;5057242;28;20087;-90
2021/07/16 00:15:10;;;;;;;20.77;5.45;;;17.80;91.60;;;;;;5057041;28;20053;-92
2021/07/16 00:17:35;;;;;;;12.93;5.13;;;17.70;91.50;;;;;;5057090;28;20049;-89
2021/07/16 00:20:02;;;;;;;20.60;4.93;;;17.70;91.70;;;;;;5056327;28;20094;-91
2021/07/16 00:22:33;;;;;;;20.38;5.10;;;17.70;91.70;;;;;;5056809;28;20454;-92
2021/07/16 00:25:00;;;;;;;20.02;5.45;;;17.70;91.60;;;;;;5056836;28;20136;-91
2021/07/16 00:27:34;;;;;;;21.60;5.20;;;17.70;91.50;;;;;;5056387;28;20126;-92
2021/07/16 00:30:02;;;;;;;15.80;5.05;;;17.70;91.50;;;;;;5055759;28;20052;-90
2021/07/16 00:32:34;;;;;;;19.08;4.75;;;17.60;91.70;;;;;;5056166;28;20186;-91
2021/07/16 00:35:03;;;;;;;19.48;4.60;;;17.70;91.40;;;;;;5055864;28;20045;-91
2021/07/16 00:37:29;;;;;;;15.27;5.00;;;17.60;91.60;;;;;;5056925;28;20057;-92
2021/07/16 00:40:03;;;;;;;17.85;4.85;;;17.60;91.60;;;;;;5056503;28;20059;-91
2021/07/16 00:42:29;;;;;;;17.55;4.63;;;17.60;91.50;;;;;;5056688;28;20049;-92
2021/07/16 00:44:57;;;;;;;24.25;5.43;;;17.60;91.60;;;;;;5056419;28;20049;-91
2021/07/16 00:47:36;;;;;;;24.13;5.50;;;17.60;91.50;;;;;;5055937;28;20455;-93
2021/07/16 00:50:31;;;;;;;18.45;5.18;;;17.60;90.80;;;;;;5055459;28;20049;-92
2021/07/16 00:53:05;;;;;;;14.48;4.43;;;17.60;91.10;;;;;;5056464;28;20049;-93
2021/07/16 00:55:37;;;;;;;18.48;5.05;;;17.50;91.30;;;;;;5056364;28;20045;-92
2021/07/16 00:58:04;;;;;;;20.38;4.80;;;17.60;91.40;;;;;;5057313;28;20064;-95
2021/07/16 01:00:40;;;;;;;19.33;5.00;;;17.50;91.10;;;;;;5055866;28;20056;-95
2021/07/16 01:03:12;;;;;;;23.85;4.72;;;17.50;91.50;;;;;;5055966;28;20072;-92
2021/07/16 01:05:44;;;;;;;18.08;4.85;;;17.50;91.30;;;;;;5055711;28;20053;-92
2021/07/16 01:08:10;;;;;;;16.35;4.35;;;17.50;91.60;;;;;;5056171;28;20048;-90
2021/07/16 01:10:37;;;;;;;17.10;4.18;;;17.50;91.30;;;;;;5058237;28;20048;-91
2021/07/16 01:13:15;;;;;;;21.00;5.30;;;17.50;91.20;;;;;;5055403;28;20048;-93
2021/07/16 01:15:41;;;;;;;19.05;4.80;;;17.50;91.20;;;;;;5055917;28;20053;-91
2021/07/16 01:18:16;;;;;;;20.23;4.85;;;17.50;91.30;;;;;;5056113;28;20048;-93
2021/07/16 01:20:42;;;;;;;17.52;4.35;;;17.50;91.20;;;;;;5056205;28;20056;-92
2021/07/16 01:23:19;;;;;;;13.80;4.00;;;17.50;91.20;;;;;;5055351;28;20052;-91
2021/07/16 01:25:53;;;;;;;13.68;4.20;;;17.50;91.50;;;;;;5055554;28;20057;-91
2021/07/16 01:28:19;;;;;;;14.32;4.30;;;17.50;91.60;;;;;;5056008;28;20386;-90
2021/07/16 01:30:51;;;;;;;19.80;4.43;;;17.50;91.80;;;;;;5055365;28;20463;-91
2021/07/16 01:33:18;;;;;;;13.50;4.03;;;17.50;91.40;;;;;;5055431;28;20052;-91
2021/07/16 01:35:49;;;;;;;15.30;4.13;;;17.50;91.50;;;;;;5055377;28;20076;-90
2021/07/16 01:38:21;;;;;;;13.65;3.97;;;17.50;91.50;;;;;;5055015;28;20048;-91
2021/07/16 01:40:47;;;;;;;14.15;4.07;;;17.50;91.40;;;;;;5056287;28;20052;-91
2021/07/16 01:43:23;;;;;;;14.95;4.25;;;17.50;91.50;;;;;;5065642;28;20080;-90
2021/07/16 01:45:51;;;;;;;17.52;4.28;;;17.60;91.40;;;;;;5066718;28;20096;-91
2021/07/16 01:48:17;;;;;;;15.25;4.10;;;17.50;91.40;;;;;;5068577;28;20056;-91
2021/07/16 01:50:50;;;;;;;14.15;3.85;;;17.50;91.20;;;;;;5067749;28;20041;-90
2021/07/16 01:53:18;;;;;;;10.85;3.95;;;17.50;91.30;;;;;;5063619;28;20053;-92
2021/07/16 01:55:44;;;;;;;15.85;4.38;;;17.50;91.50;;;;;;5056234;28;20127;-91
2021/07/16 01:58:11;;;;;;;12.38;3.80;;;17.50;91.30;;;;;;5054538;28;20535;-91
2021/07/16 02:00:47;;;;;;;13.65;4.10;;;17.50;91.10;;;;;;5055276;28;20049;-92
2021/07/16 02:03:16;;;;;;;12.70;3.90;;;17.50;91.20;;;;;;5055248;28;20053;-92
2021/07/16 02:05:47;;;;;;;13.07;3.65;;;17.50;91.20;;;;;;5055152;28;20041;-90
2021/07/16 02:08:24;;;;;;;11.43;3.50;;;17.50;91.20;;;;;;5054560;28;20052;-90
2021/07/16 02:10:55;;;;;;;12.25;3.97;;;17.50;91.30;;;;;;5054550;28;20045;-91
2021/07/16 02:13:22;;;;;;;12.68;3.55;;;17.50;91.60;;;;;;5054522;28;20052;-91
2021/07/16 02:15:51;;;;;;;14.98;4.45;;;17.50;91.60;;;;;;5054755;28;20052;-91
2021/07/16 02:18:18;;;;;;;12.20;4.10;;;17.50;91.60;;;;;;5054338;28;20076;-94
2021/07/16 02:20:43;;;;;;;17.23;3.90;;;17.50;91.60;;;;;;5054675;28;20481;-94
2021/07/16 02:23:16;;;;;;;14.32;3.47;;;17.50;91.40;;;;;;5055164;28;20073;-94
2021/07/16 02:25:42;;;;;;;12.32;3.70;;;17.50;91.40;;;;;;5054834;28;20105;-93
2021/07/16 02:28:19;;;;;;;12.73;4.20;;;17.50;91.40;;;;;;5055065;28;20056;-91
2021/07/16 02:30:53;;;;;;;13.25;3.90;;;17.50;91.60;;;;;;5056285;28;20040;-93
2021/07/16 02:33:23;;;;;;;12.77;3.80;;;17.40;91.60;;;;;;5054552;28;20127;-89
2021/07/16 02:35:52;;;;;;;12.25;3.80;;;17.50;91.60;;;;;;5055568;28;20056;-93
2021/07/16 02:38:18;;;;;;;14.88;3.75;;;17.50;91.70;;;;;;5055702;28;20397;-91
2021/07/16 02:40:44;;;;;;;11.80;3.90;;;17.40;91.50;;;;;;5055184;28;20045;-94
2021/07/16 02:43:14;;;;;;;14.55;3.95;;;17.50;92.00;;;;;;5054640;28;20481;-94
2021/07/16 02:45:46;;;;;;;12.27;3.70;;;17.50;91.60;;;;;;5055134;28;20053;-93
2021/07/16 02:48:13;;;;;;;12.45;3.83;;;17.40;91.60;;;;;;5054628;28;20114;-90
2021/07/16 02:50:42;;;;;;;13.13;3.15;;;17.40;91.50;;;;;;5054855;28;20056;-92
2021/07/16 02:53:11;;;;;;;11.05;3.17;;;17.50;91.10;;;;;;5054433;28;20049;-94
2021/07/16 02:55:38;;;;;;;12.35;3.60;;;17.40;91.30;;;;;;5054871;28;20523;-95
2021/07/16 02:58:04;;;;;;;10.23;3.05;;;17.40;91.40;;;;;;5055540;28;20094;-95
2021/07/16 03:00:31;;;;;;;15.43;3.95;;;17.50;91.40;;;;;;5054959;28;20147;-92
2021/07/16 03:02:58;;;;;;;18.40;4.05;;;17.40;91.20;;;;;;5054698;28;20052;-94
2021/07/16 03:05:30;;;;;;;12.32;3.80;;;17.40;91.20;;;;;;5055511;28;20059;-94
2021/07/16 03:07:57;;;;;;;15.40;3.78;;;17.40;91.30;;;;;;5054909;28;20124;-95
2021/07/16 03:10:31;;;;;;;13.30;3.80;;;17.40;91.20;;;;;;5055318;28;20500;-94
2021/07/16 03:13:05;;;;;;;22.10;4.22;;;17.40;91.20;;;;;;5058318;28;20083;-94
2021/07/16 03:15:35;;;;;;;14.27;3.67;;;17.40;91.00;;;;;;5059114;28;20072;-93
2021/07/16 03:18:02;;;;;;;15.48;4.05;;;17.40;91.10;;;;;;5058822;28;20118;-91
2021/07/16 03:20:33;;;;;;;16.77;3.65;;;17.30;91.00;;;;;;5059152;28;20139;-92
2021/07/16 03:22:59;;;;;;;13.60;3.42;;;17.30;91.10;;;;;;5059079;28;20569;-92
2021/07/16 03:25:26;;;;;;;12.52;3.40;;;17.30;91.20;;;;;;5058939;28;20048;-92
2021/07/16 03:27:53;;;;;;;15.05;3.50;;;17.30;91.20;;;;;;5059012;28;20064;-92
2021/07/16 03:30:28;;;;;;;17.88;3.75;;;17.30;91.20;;;;;;5059197;28;20110;-94
2021/07/16 03:33:00;;;;;;;13.63;3.25;;;17.30;91.20;;;;;;5058388;28;20048;-93
2021/07/16 03:35:29;;;;;;;12.30;3.40;;;17.30;91.40;;;;;;5058494;28;20080;-93
2021/07/16 03:37:56;;;;;;;16.05;3.80;;;17.30;91.60;;;;;;5058654;28;20060;-95
2021/07/16 03:40:35;;;;;;;16.20;3.50;;;17.30;91.40;;;;;;5058890;28;20500;-93
2021/07/16 03:43:01;;;;;;;14.60;3.50;;;17.30;91.60;;;;;;5059406;28;20087;-93
2021/07/16 03:45:27;;;;;;;16.60;3.75;;;17.30;91.30;;;;;;5058880;28;20056;-95
2021/07/16 03:47:53;;;;;;;13.93;3.45;;;17.30;91.20;;;;;;5058736;28;20049;-95
2021/07/16 03:50:21;;;;;;;12.68;3.45;;;17.30;91.30;;;;;;5058315;28;20512;-94
2021/07/16 03:52:48;;;;;;;17.90;3.85;;;17.30;91.60;;;;;;5058526;28;20048;-94
2021/07/16 03:55:15;;;;;;;12.02;3.22;;;17.20;91.50;;;;;;5058570;28;20049;-94
2021/07/16 03:57:48;;;;;;;18.63;3.72;;;17.20;91.50;;;;;;5057949;28;20048;-94
2021/07/16 04:00:17;;;;;;;12.02;3.70;;;17.20;91.40;;;;;;5058759;28;20053;-94
2021/07/16 04:02:45;;;;;;;11.43;3.15;;;17.20;91.50;;;;;;5059039;28;20044;-95
2021/07/16 04:05:14;;;;;;;16.67;4.00;;;17.20;91.50;;;;;;5058426;28;20053;-95
2021/07/16 04:07:47;;;;;;;15.15;3.42;;;17.20;91.50;;;;;;5058445;28;20484;-94
2021/07/16 04:10:18;;;;;;;10.90;3.95;;;17.20;91.50;;;;;;5058241;28;20079;-94
2021/07/16 04:12:52;;;;;;;10.43;3.22;;;17.20;91.70;;;;;;5058229;28;20044;-95
2021/07/16 04:15:20;;;;;;;15.75;3.50;;;17.20;91.80;;;;;;5053604;28;20045;-94
2021/07/16 04:17:46;;;;;;;14.13;3.10;;;17.20;91.60;;;;;;5058062;28;20056;-95
2021/07/16 04:20:13;;;;;;;15.82;3.78;;;17.20;91.60;;;;;;5058274;28;20123;-95
2021/07/16 04:22:39;;;;;;;12.35;3.05;;;17.20;91.60;;;;;;5058770;28;20056;-94
2021/07/16 04:25:13;;;;;;;10.68;3.42;;;17.20;91.60;;;;;;5057928;28;20111;-95
2021/07/16 04:27:41;;;;;;;13.48;3.75;;;17.20;91.60;;;;;;5058020;28;20136;-95
2021/07/16 04:30:08;;;;;;;13.55;3.28;;;17.20;91.50;;;;;;5058724;28;20045;-95
2021/07/16 04:32:34;;;;;;;14.95;3.78;;;17.20;91.50;;;;;;5059902;28;20048;-94
2021/07/16 04:35:00;;;;;;;21.52;4.07;;;17.20;91.60;;;;;;5058337;28;20053;-95
2021/07/16 04:37:28;;;;;;;13.15;3.28;;;17.20;91.40;;;;;;5061196;28;20098;-95
2021/07/16 04:39:55;;;;;;;16.95;3.67;;;17.20;91.20;;;;;;5041753;28;20049;-96
2021/07/16 04:42:21;;;;;;;13.07;3.30;;;17.20;91.40;;;;;;5063082;28;20045;-96
2021/07/16 04:44:48;;;;;;;20.25;3.85;;;17.20;91.40;;;;;;5063061;28;20060;-96
2021/07/16 04:47:16;;;;;;;14.30;3.25;;;17.10;91.30;;;;;;5059064;28;20088;-94
2021/07/16 04:49:42;;;;;;;17.25;3.53;;;17.20;91.40;;;;;;5059413;28;20048;-94
2021/07/16 04:52:10;;;;;;;13.35;3.30;;;17.20;91.40;;;;;;5061111;28;20082;-96
2021/07/16 04:54:37;;;;;;;20.77;3.78;;;17.20;91.50;;;;;;5070777;28;20053;-95
2021/07/16 04:57:11;;;;;;;18.17;4.03;;;17.20;91.50;;;;;;5061589;28;20541;-96
2021/07/16 04:59:38;;;;;;;16.75;3.33;;;17.20;91.30;;;;;;5058905;28;20053;-96
2021/07/16 05:02:21;;;;;;;17.35;3.42;;;17.20;91.50;;;;;;5062731;28;20045;-95
2021/07/16 05:04:49;;;;;;;19.88;4.13;;;17.10;91.50;;;;;;5058461;28;20111;-96
2021/07/16 05:07:17;;;;;;;17.15;3.63;;;17.10;91.40;;;;;;5058427;28;20047;-94
2021/07/16 05:09:46;;;;;;;16.58;4.07;;;17.10;91.80;;;;;;5058674;28;20053;-94
2021/07/16 05:12:16;;;;;;;14.57;3.20;;;17.10;91.50;;;;;;5057844;28;20488;-94
2021/07/16 05:14:42;;;;;;;18.25;3.83;;;17.10;91.50;;;;;;5058919;28;20055;-94
2021/07/16 05:17:16;;;;;;;20.55;4.15;;;17.10;91.30;;;;;;5055306;28;20045;-96
2021/07/16 05:19:48;;;;;;;22.23;4.07;;;17.10;91.40;;;;;;5057760;28;20475;-93
2021/07/16 05:22:14;;;;;;;21.73;3.75;;;17.10;91.40;;;;;;5057520;28;20053;-93
2021/07/16 05:24:39;;;;;;;23.30;4.18;;;17.10;91.40;;;;;;5057279;28;20454;-93
2021/07/16 05:27:06;;;;;;;16.52;3.58;;;17.10;91.40;;;;;;5058610;28;20045;-96
2021/07/16 05:29:41;;;;;;;12.10;3.05;;;17.20;91.50;;;;;;5061138;28;20098;-96
2021/07/16 05:32:07;;;;;;;14.27;3.22;;;17.20;91.60;;;;;;5059313;28;20049;-95
2021/07/16 05:34:40;;;;;;;20.38;4.43;;;17.10;91.70;;;;;;5056905;28;20128;-94
2021/07/16 05:37:07;;;;;;;21.40;4.10;;;17.20;91.50;;;;;;5057922;28;20052;-96
2021/07/16 05:39:33;;;;;;;26.67;5.03;;;17.20;91.50;;;;;;5060641;28;20044;-94
2021/07/16 05:42:07;;;;;;;20.33;4.40;;;17.10;91.30;;;;;;5057510;28;20049;-85
2021/07/16 05:44:33;;;;;;;23.35;4.57;;;17.20;91.30;;;;;;5054722;28;20060;-84
2021/07/16 05:46:59;;;;;;;20.13;4.13;;;17.10;91.30;;;;;;5054342;28;20037;-84
2021/07/16 05:49:25;;;;;;;19.58;3.92;;;17.10;91.40;;;;;;5053585;28;20045;-84
2021/07/16 05:52:01;;;;;;;26.10;4.70;;;17.10;91.20;;;;;;5057180;28;20053;-95
2021/07/16 05:54:27;;;;;;;21.35;4.50;;;17.20;91.30;;;;;;5055092;28;20049;-94
2021/07/16 05:56:52;;;;;;;23.05;4.53;;;17.20;91.40;;;;;;5055000;28;20067;-92
2021/07/16 05:59:20;;;;;;;20.02;4.00;;;17.20;91.40;;;;;;5055171;28;20099;-94
2021/07/16 06:01:48;;;;;;;26.75;4.72;;;17.20;91.40;;;;;;5055154;28;20049;-94
2021/07/16 06:04:13;;;;;;;28.10;5.00;;;17.20;91.30;;;;;;5055078;28;20078;-90
2021/07/16 06:06:39;;;;;;;20.02;4.13;;;17.20;91.30;;;;;;5059227;28;20123;-92
2021/07/16 06:09:12;;;;;;;15.73;3.55;;;17.20;91.30;;;;;;5058190;28;20053;-96
2021/07/16 06:11:37;;;;;;;30.27;5.18;;;17.20;91.40;;;;;;5058722;28;20044;-94
2021/07/16 06:14:06;;;;;;;23.30;4.82;;;17.20;91.30;;;;;;5059731;28;20053;-95
2021/07/16 06:16:38;;;;;;;23.67;4.47;;;17.20;91.20;;;;;;5059908;28;20439;-96
2021/07/16 06:19:03;;;;;;;21.13;4.28;;;17.20;91.20;;;;;;5057785;28;20056;-96
2021/07/16 06:21:32;;;;;;;16.33;3.97;;;17.30;91.30;;;;;;5061283;28;20045;-94
2021/07/16 06:23:58;;;;;;;16.67;3.58;;;17.30;91.50;;;;;;5061958;28;20050;-96
2021/07/16 06:26:26;;;;;;;24.63;4.90;;;17.30;91.50;;;;;;5052149;28;20054;-96
2021/07/16 06:28:52;;;;;;;22.20;4.68;;;17.30;91.80;;;;;;5048486;28;20049;-96
2021/07/16 06:31:37;;;;;;;20.58;4.32;;;17.30;91.50;;;;;;5049700;28;20113;-96
2021/07/16 06:34:03;;;;;;;18.30;3.80;;;17.30;91.50;;;;;;5060444;28;20520;-94
2021/07/16 06:36:33;;;;;;;22.30;4.60;;;17.40;91.50;;;;;;5052798;28;20102;-94
2021/07/16 06:38:58;;;;;;;25.42;5.00;;;17.40;91.40;;;;;;5062614;28;20061;-93
2021/07/16 06:41:32;;;;;;;26.23;4.78;;;17.40;91.30;;;;;;5060903;28;20044;-96
2021/07/16 06:44:00;;;;;;;25.35;4.47;;;17.40;91.10;;;;;;5054967;28;20068;-93
2021/07/16 06:46:25;;;;;;;25.92;4.97;;;17.40;91.30;;;;;;5052964;28;20481;-88
2021/07/16 06:48:51;;;;;;;17.27;4.10;;;17.40;91.30;;;;;;5053734;28;20090;-92
2021/07/16 06:51:17;;;;;;;20.88;4.60;;;17.40;91.50;;;;;;5055600;28;20122;-91
2021/07/16 06:53:46;;;;;;;17.15;3.75;;;17.40;91.40;;;;;;5064807;28;20049;-96
2021/07/16 06:56:21;;;;;;;16.73;3.50;;;17.40;91.50;;;;;;5069610;28;20045;-96
2021/07/16 06:58:47;;;;;;;19.27;4.20;;;17.50;91.60;;;;;;5062896;28;20068;-94
2021/07/16 07:01:24;;;;;;;25.90;4.60;;;17.50;91.60;;;;;;5066254;28;20049;-95
2021/07/16 07:03:57;;;;;;;21.65;4.32;;;17.50;91.30;;;;;;5068729;28;20045;-96
2021/07/16 07:06:23;;;;;;;;;;;17.50;91.30;;;;;;5067781;28;20033;-93
2021/07/16 07:08:49;;;;;;;22.83;4.82;;;17.40;91.00;;;;;;5049140;28;19921;-94
2021/07/16 07:11:18;;;;;;;20.10;4.68;;;17.50;91.40;;;;;;5066933;28;20048;-95
2021/07/16 07:23:33;;;;;;;18.77;4.07;;;17.50;91.30;;;;;;4961977;28;20400;-88
2021/07/16 07:26:05;;;;;;;17.83;3.92;;;17.50;91.30;;;;;;5040268;28;20045;-94
2021/07/16 07:28:30;;;;;;;30.85;6.15;;;17.50;91.40;;;;;;5051861;28;20045;-95
2021/07/16 07:31:05;;;;;;;25.17;4.78;;;17.50;91.30;;;;;;5058801;28;20045;-96
2021/07/16 07:33:31;;;;;;;21.23;4.25;;;17.50;91.20;;;;;;5058736;28;20045;-93
2021/07/16 07:36:11;;;;;;;29.90;4.82;;;17.50;91.20;;;;;;5061534;28;20088;-94
2021/07/16 07:38:37;;;;;;;33.30;5.45;;;17.50;91.00;;;;;;5058296;28;20485;-94
2021/07/16 07:41:04;;;;;;;27.63;4.32;;;17.60;91.00;;;;;;5057994;28;20091;-96
2021/07/16 07:43:29;;;;;;;18.17;3.85;;;17.60;91.10;;;;;;5057976;28;20121;-95
2021/07/16 07:45:58;;;;;;;22.52;4.30;;;17.60;91.20;;;;;;5057295;28;20076;-94
2021/07/16 07:48:30;;;;;;;18.95;3.78;;;17.60;91.20;;;;;;5056869;28;20052;-92
2021/07/16 07:50:57;;;;;;;31.30;5.63;;;17.60;91.20;;;;;;5056057;28;20075;-96
2021/07/16 07:53:35;;;;;;;26.88;5.00;;;17.60;91.20;;;;;;5055244;28;20105;-96
2021/07/16 07:56:00;;;;;;;37.78;5.50;;;17.60;91.20;;;;;;5055226;28;20049;-93
2021/07/16 07:58:26;;;;;;;26.17;5.20;;;17.60;91.00;;;;;;5058640;28;20130;-93
2021/07/16 08:00:59;;;;;;;24.77;5.13;;;17.60;91.00;;;;;;5060455;28;20507;-92
2021/07/16 08:03:37;;;;;;;22.65;4.22;;;17.60;90.90;;;;;;5057985;28;20049;-82
2021/07/16 08:06:03;;;;;;;30.10;5.20;;;17.70;91.10;;;;;;5056327;28;20069;-92
2021/07/16 08:08:35;;;;;;;25.33;5.07;;;17.70;91.10;;;;;;5060651;28;20067;-90
2021/07/16 08:11:01;;;;;;;43.85;6.50;;;17.70;91.10;;;;;;5058239;28;20048;-93
2021/07/16 08:13:28;;;;;;;26.27;5.18;;;17.70;91.00;;;;;;5057544;28;20052;-95
2021/07/16 08:16:14;;;;;;;38.20;5.82;;;17.70;91.00;;;;;;5039046;28;20443;-87
2021/07/16 08:18:46;;;;;;;47.97;6.43;;;17.80;90.90;;;;;;5054967;28;20052;-88
2021/07/16 08:21:19;;;;;;;30.98;5.55;;;17.80;90.90;;;;;;5055490;28;20139;-86
2021/07/16 08:23:45;;;;;;;35.00;6.18;;;17.80;90.90;;;;;;5055324;28;20560;-90
2021/07/16 08:26:13;;;;;;;26.08;5.13;;;17.80;90.80;;;;;;5055860;28;20152;-89
2021/07/16 08:28:39;;;;;;;28.33;5.38;;;17.90;90.80;;;;;;5056154;28;20048;-88
2021/07/16 08:31:05;;;;;;;27.45;5.43;;;17.90;90.80;;;;;;5054348;28;20049;-86
2021/07/16 08:33:34;;;;;;;28.65;6.00;;;17.90;90.70;;;;;;5055821;28;20135;-90
2021/07/16 08:36:30;;;;;;;24.38;5.13;;;18.00;90.70;;;;;;5055337;28;20045;-88
2021/07/16 08:39:13;;;;;;;32.47;5.70;;;18.00;90.50;;;;;;5043358;28;20049;-88
2021/07/16 08:41:38;;;;;;;27.60;5.63;;;18.00;90.60;;;;;;5055315;28;20049;-87
2021/07/16 08:44:07;;;;;;;30.25;5.50;;;18.00;90.60;;;;;;5055219;28;20056;-89
2021/07/16 08:46:37;;;;;;;31.50;5.68;;;18.00;90.50;;;;;;5054442;28;20049;-88
2021/07/16 08:49:05;;;;;;;29.65;5.53;;;18.10;90.40;;;;;;5054891;28;20130;-85
2021/07/16 08:51:31;;;;;;;30.05;5.85;;;18.10;90.30;;;;;;5054875;28;20140;-86
2021/07/16 08:53:57;;;;;;;25.77;5.00;;;18.10;90.30;;;;;;5053769;28;20131;-85
2021/07/16 08:56:28;;;;;;;33.53;5.65;;;18.10;90.30;;;;;;5054884;28;20128;-85
2021/07/16 08:58:54;;;;;;;30.23;5.90;;;18.20;90.30;;;;;;5053540;28;20067;-85
2021/07/16 09:01:19;;;;;;;23.38;4.88;;;18.20;90.20;;;;;;5054923;28;20045;-87
2021/07/16 09:04:07;;;;;;;25.58;5.40;;;18.20;90.30;;;;;;5055598;28;20409;-88
2021/07/16 09:06:51;;;;;;;28.05;5.25;;;18.20;89.90;;;;;;5045165;28;20048;-86
2021/07/16 09:09:31;;;;;;;31.85;5.82;;;18.20;90.00;;;;;;5034771;28;20061;-88
2021/07/16 09:12:39;;;;;;;26.10;5.28;;;18.20;90.00;;;;;;5034133;28;20136;-86
2021/07/16 09:16:10;;;;;;;;;;;;;;;;;;;;;
2021/07/16 09:19:10;;;;;;;26.20;5.10;;;18.30;90.00;;;;;;4993327;28;20089;-86
2021/07/16 09:21:39;;;;;;;27.45;5.18;;;18.30;90.10;;;;;;4997108;28;20060;-86
2021/07/16 09:24:05;;;;;;;27.20;5.30;;;18.30;90.10;;;;;;5034956;28;20057;-86
2021/07/16 09:26:30;;;;;;;26.65;5.25;;;18.30;90.20;;;;;;5044537;28;20094;-87
2021/07/16 09:29:04;;;;;;;28.75;5.25;;;18.40;90.30;;;;;;5053968;28;20140;-86
2021/07/16 09:31:37;;;;;;;23.20;4.72;;;18.40;90.20;;;;;;5055044;28;20451;-87
2021/07/16 09:34:07;;;;;;;;;;;18.40;90.20;;;;;;5053549;28;20404;-86
2021/07/16 09:36:40;;;;;;;25.63;5.25;;;18.40;90.00;;;;;;5054123;28;20327;-86
2021/07/16 09:39:08;;;;;;;27.13;5.10;;;18.40;90.20;;;;;;5054492;28;20048;-87
2021/07/16 09:41:45;;;;;;;23.95;5.40;;;18.40;90.10;;;;;;5049054;28;20048;-88
2021/07/16 09:44:13;;;;;;;21.63;4.57;;;18.50;90.00;;;;;;5054582;28;20554;-87
2021/07/16 09:46:41;;;;;;;23.80;5.10;;;18.50;90.10;;;;;;5053689;28;20109;-88
2021/07/16 09:49:30;;;;;;;30.17;5.75;;;18.50;90.00;;;;;;5021784;28;20051;-87
2021/07/16 09:52:29;;;;;;;25.05;4.97;;;18.50;89.50;;;;;;5053886;28;20159;-87
2021/07/16 09:55:29;;;;;;;28.45;4.95;;;18.50;89.70;;;;;;5054222;28;20163;-86
2021/07/16 09:58:27;;;;;;;32.17;5.53;;;18.50;89.50;;;;;;5021852;22;20060;-87
2021/07/16 10:00:54;;;;;;;27.05;5.10;;;18.50;89.30;;;;;;5033832;28;20510;-87
2021/07/16 10:03:21;;;;;;;31.30;6.20;;;18.60;89.50;;;;;;5034055;28;20060;-87
2021/07/16 10:05:49;;;;;;;31.08;5.43;;;18.60;89.40;;;;;;5034108;28;20049;-86
2021/07/16 10:08:17;;;;;;;25.13;5.28;;;18.60;89.20;;;;;;5034190;28;20049;-88
2021/07/16 10:10:48;;;;;;;45.42;6.88;;;18.60;89.50;;;;;;5033768;28;20041;-87
2021/07/16 10:13:14;;;;;;;54.92;7.22;;;18.70;89.50;;;;;;5033736;28;20056;-86
2021/07/16 10:15:44;;;;;;;34.35;6.65;;;18.70;89.30;;;;;;5033497;28;20052;-87
2021/07/16 10:18:14;;;;;;;24.92;5.43;;;18.70;89.40;;;;;;5035789;28;20057;-88
2021/07/16 10:20:40;;;;;;;26.90;5.28;;;18.80;89.50;;;;;;5034799;28;20128;-86
2021/07/16 10:23:09;;;;;;;33.17;6.38;;;18.80;89.40;;;;;;5033885;28;20053;-86
2021/07/16 10:25:35;;;;;;;32.90;6.40;;;18.80;89.30;;;;;;5033546;28;20037;-87
2021/07/16 10:28:01;;;;;;;39.00;6.38;;;18.90;89.10;;;;;;5033332;28;20045;-87
2021/07/16 10:30:35;;;;;;;29.27;6.28;;;18.90;88.80;;;;;;5032780;28;20052;-86
2021/07/16 10:33:01;;;;;;;33.55;5.85;;;18.90;88.70;;;;;;5033093;28;20104;-86
2021/07/16 10:35:37;;;;;;;26.20;5.57;;;18.90;88.40;;;;;;5033459;28;20041;-87
2021/07/16 10:38:24;;;;;;;28.90;5.70;;;19.00;88.60;;;;;;5032285;28;20045;-88
2021/07/16 10:40:49;;;;;;;27.35;5.55;;;19.00;88.50;;;;;;5007523;28;20045;-88
2021/07/16 10:43:27;;;;;;;27.42;6.10;;;19.00;88.70;;;;;;5033517;28;20102;-87
2021/07/16 10:45:56;;;;;;;31.85;6.25;;;19.00;88.50;;;;;;5031966;28;20103;-86
2021/07/16 10:48:23;;;;;;;26.15;5.57;;;19.00;88.10;;;;;;5033538;28;20049;-85
2021/07/16 10:50:53;;;;;;;31.63;5.80;;;19.10;87.60;;;;;;5033501;28;20045;-85
2021/07/16 10:53:27;;;;;;;30.95;6.28;;;19.10;87.30;;;;;;5032808;28;20045;-85
2021/07/16 10:55:56;;;;;;;32.17;6.38;;;19.10;87.50;;;;;;5032843;28;20057;-86
2021/07/16 10:58:40;;;;;;;26.90;5.70;;;19.10;88.10;;;;;;5032657;28;20057;-85
2021/07/16 11:01:07;;;;;;;26.55;6.03;;;19.20;88.10;;;;;;5033045;28;20046;-85
2021/07/16 11:03:46;;;;;;;22.52;5.35;;;19.20;88.00;;;;;;5033599;28;20053;-85
2021/07/16 11:06:13;;;;;;;30.52;6.53;;;19.20;88.00;;;;;;5031637;28;20505;-85
2021/07/16 11:08:40;;;;;;;30.05;6.55;;;19.20;87.80;;;;;;5033282;28;20053;-85
2021/07/16 11:11:12;;;;;;;30.73;5.97;;;19.30;87.70;;;;;;5033068;28;20084;-85
2021/07/16 11:13:54;;;;;;;24.55;5.22;;;19.30;87.60;;;;;;5032516;28;20050;-86
2021/07/16 11:18:55;;;;;;;29.83;6.30;;;19.40;87.80;;;;;;5033068;28;20049;-84
2021/07/16 11:21:40;;;;;;;32.95;6.20;;;19.40;87.40;;;;;;5032389;28;20450;-85
2021/07/16 11:24:20;;;;;;;25.55;5.47;;;19.50;87.20;;;;;;5031799;28;20072;-89
2021/07/16 11:26:56;;;;;;;27.92;5.88;;;19.50;86.80;;;;;;5031655;28;20487;-90
2021/07/16 11:29:36;;;;;;;32.60;5.82;;;19.50;86.90;;;;;;5025432;28;20139;-90
2021/07/16 11:32:10;;;;;;;23.58;5.78;;;19.50;86.90;;;;;;5032977;28;20056;-90
2021/07/16 11:34:48;;;;;;;26.45;5.15;;;19.60;87.60;;;;;;5036408;28;20061;-90
2021/07/16 11:45:39;;;;;;;;;;;;;;;;;;;;;
2021/07/16 12:03:15;;;;;;;33.00;7.00;;;19.70;86.20;;;;;;4947478;28;20504;-91
2021/07/16 12:05:55;;;;;;;28.40;5.97;;;19.80;86.20;;;;;;4967616;28;20058;-89
2021/07/16 12:08:34;;;;;;;29.58;5.80;;;19.80;86.70;;;;;;4956148;28;20138;-92
2021/07/16 12:11:19;;;;;;;29.08;6.22;;;19.90;87.00;;;;;;4961791;28;20051;-90
2021/07/16 12:13:59;;;;;;;34.08;6.60;;;19.90;86.80;;;;;;4959969;28;20786;-87
2021/07/16 12:16:25;;;;;;;23.23;5.88;;;19.90;86.50;;;;;;4974311;28;20125;-90
2021/07/16 12:18:50;;;;;;;29.00;6.50;;;19.90;86.90;;;;;;4966981;28;20487;-87
2021/07/16 12:21:18;;;;;;;22.67;5.85;;;20.00;87.10;;;;;;4999771;28;20050;-88
2021/07/16 12:23:48;;;;;;;25.35;5.85;;;20.00;87.50;;;;;;5015160;28;20100;-86
2021/07/16 12:26:19;;;;;;;27.70;5.88;;;20.00;87.20;;;;;;5015130;28;20046;-87
2021/07/16 12:28:46;;;;;;;23.55;5.82;;;20.10;87.40;;;;;;4996825;28;20049;-88
2021/07/16 12:31:13;;;;;;;30.90;7.32;;;20.10;87.10;;;;;;5004773;28;20074;-92
2021/07/16 12:33:41;;;;;;;31.55;6.57;;;20.10;86.50;;;;;;5015120;28;20050;-95
2021/07/16 12:36:38;;;;;;;47.80;7.07;;;20.20;86.50;;;;;;5021137;28;20081;-94
2021/07/16 12:39:27;;;;;;;31.17;6.28;;;20.20;85.60;;;;;;5020502;28;20042;-94
2021/07/16 12:42:11;;;;;;;32.13;6.75;;;20.20;85.80;;;;;;5018255;28;20052;-94
2021/07/16 12:44:37;;;;;;;29.40;6.85;;;20.20;85.80;;;;;;5017808;28;20084;-93
2021/07/16 12:47:18;;;;;;;30.83;6.63;;;20.30;86.40;;;;;;5018430;28;20054;-94
2021/07/16 12:49:46;;;;;;;30.10;6.53;;;20.30;85.70;;;;;;5016806;28;20046;-94
2021/07/16 12:52:14;;;;;;;25.70;6.13;;;20.40;86.10;;;;;;5015301;28;20304;-96
2021/07/16 12:54:39;;;;;;;24.88;5.88;;;20.40;85.70;;;;;;5018530;28;20060;-89
2021/07/16 12:57:13;;;;;;;25.80;5.88;;;20.50;85.20;;;;;;5015631;28;20046;-93
2021/07/16 12:59:49;;;;;;;23.08;5.82;;;20.50;84.80;;;;;;5023035;28;20053;-90
2021/07/16 13:02:26;;;;;;;31.33;6.72;;;20.50;85.10;;;;;;5050961;28;20408;-94
2021/07/16 13:04:54;;;;;;;30.15;6.88;;;20.50;85.00;;;;;;5058193;28;20049;-93
2021/07/16 13:07:24;;;;;;;25.92;6.47;;;20.50;84.70;;;;;;5052424;28;20051;-91
2021/07/16 13:09:54;;;;;;;27.35;5.95;;;20.50;83.90;;;;;;5060131;28;20064;-95
2021/07/16 13:12:32;;;;;;;33.28;6.40;;;20.50;84.10;;;;;;5055920;28;20584;-95
2021/07/16 13:19:15;;;;;;;23.60;6.13;;;20.50;83.50;;;;;;4960406;29;20051;-89
2021/07/16 13:22:04;;;;;;;26.00;6.38;;;20.50;83.70;;;;;;4952268;29;20074;-88
2021/07/16 13:24:30;;;;;;;29.23;6.57;;;20.60;85.30;;;;;;4954735;29;20055;-89
2021/07/16 13:27:26;;;;;;;24.80;6.07;;;20.50;85.10;;;;;;4952017;29;20050;-91
2021/07/16 13:30:05;;;;;;;27.85;6.70;;;20.60;84.50;;;;;;4871436;29;20581;-89
2021/07/16 13:32:43;;;;;;;34.00;6.60;;;20.60;84.70;;;;;;4944883;29;20169;-93
2021/07/16 13:35:12;;;;;;;25.38;6.40;;;20.60;84.50;;;;;;5017445;28;20139;-95
2021/07/16 13:37:38;;;;;;;27.75;6.85;;;20.70;85.50;;;;;;5037674;28;20056;-96
2021/07/16 13:40:08;;;;;;;24.40;6.63;;;20.70;84.70;;;;;;5049014;28;20042;-95